Portada
METAR-TAF:

METAR-TAF

Aeroports :

Taïf, Aràbia Saudita

latitud: 21-29N, longitud: 040-33E, altitud: 1478 m

Observació

L'informe es va fer fa 27 minuts, a les 11:00 UTC
Vent 2 kt del Nord/Nord-Est
Temperatura 27°C
Humitat 39%
Pressió 1020 hPa
Visibilitat 10 km o més
Núvols disperses a una alçada de 2500 ft

METAR: OETF 141100Z 03002KT 9999 SCT025 27/12 Q1020 NOSIG

Hora: 14:27 (11:27 UTC)

Pronòstic

L'informe es va fer fa 6 hores i 27 minuts, a les 05:00 UTC
Pronòstic vàlid del 14 a les 06 UTC al 14 a les 24 UTC
Vent 10 kt del Sud amb ràfegues de 20 kt
Visibilitat: 8000 m
Núvols disperses a una alçada de 3000 ft
Temporalment
l' 14 a les 10 UTC al 14 a les 18 UTC
Visibilitat: 5000 m
Escasses núvols a una alçada de 2500 ft, Cumulonimbus.
Cel ennuvolat a una alçada de 3000 ft
tempesta, pluja
Evolucionant progressivament
l' 14 a les 12 UTC al 14 a les 14 UTC
Vent 12 kt del Oest

TAF: OETF 140500Z 1406/1424 18010G20KT 8000 SCT030 TEMPO 1410/1418 5000 TSRA FEW025CB BKN030 BECMG 1412/1414 28012KT

Observacions i pronòstics meteorològics de més de 4000 aeroports (METAR i TAF).

Les estacions disponibles són els punts grocs i vermells al mapa.

Posi el ratolí al punt desitjat per veure el nom de l'estació.

Feu clic per veure les observacions i els pronòstics meteorològics.

Per canviar el mapa: feu clic els botons verds amb una creu de color negre per apropar; al botó verd amb un guió per allunyar la imatge; o en les fletxes verdes per a mapes adjacents.


METAR-TAF: